Latest Weather Observations for Lord Howe Island Windy Point

IDN60801

Issued at 11:35 pm EST Friday 1 August 2014 (issued every 30 minutes, with the page automatically refreshed every 10 minutes)

About weather observations | Map of weather stations | Latest weather observations for NSW | Other Formats
Station Details ID: 200715 Name: LORD HOWE ISLAND WINDY POINT Lat: -31.54 Lon: 159.07 Height: 4.0 m
Data from the previous 72 hours. | See also: Recent months for locations in New South Wales
Date/Time
EST
Temp
°C
App
Temp
°C
Dew
Point
Rel
Hum
%
Delta-T
°C
Wind Press
QNH
hPa
Press
MSL
hPa
Rain
since 9 am
mm
Dir
 
Spd
km/h
Gust
km/h
Spd
kts
Gust
kts
01/11:30pm - - - - - NW 33 56 18 30 - - -
01/11:00pm - - - - - NNW 32 54 17 29 - - -
01/10:30pm - - - - - NNW 28 50 15 27 - - -
01/10:08pm - - - - - NNW 28 61 15 33 - - -
01/10:00pm - - - - - NW 24 61 13 33 - - -
01/09:30pm - - - - - NNW 28 57 15 31 - - -
01/09:19pm - - - - - NW 28 74 15 40 - - -
01/09:00pm - - - - - NW 30 44 16 24 - - -
01/08:30pm - - - - - NNW 30 52 16 28 - - -
01/08:02pm - - - - - NW 32 50 17 27 - - -
01/08:00pm - - - - - NW 33 50 18 27 - - -
01/07:30pm - - - - - NW 30 48 16 26 - - -
01/07:08pm - - - - - NW 30 52 16 28 - - -
01/07:00pm - - - - - NW 30 46 16 25 - - -
01/06:46pm - - - - - NW 28 50 15 27 - - -
01/06:30pm - - - - - NW 26 39 14 21 - - -
01/06:00pm - - - - - NW 30 50 16 27 - - -
01/05:30pm - - - - - NW 28 46 15 25 - - -
01/05:05pm - - - - - NW 32 50 17 27 - - -
01/05:00pm - - - - - NW 30 46 16 25 - - -
01/04:50pm - - - - - NNW 28 48 15 26 - - -
01/04:30pm - - - - - NNW 22 41 12 22 - - -
01/04:00pm - - - - - NNW 24 41 13 22 - - -
01/03:30pm - - - - - NNW 30 48 16 26 - - -
01/03:23pm - - - - - NNW 28 52 15 28 - - -
01/03:00pm - - - - - NNW 20 37 11 20 - - -
01/02:30pm - - - - - NW 26 43 14 23 - - -
01/02:00pm - - - - - NNW 24 43 13 23 - - -
01/01:36pm - - - - - NNW 28 48 15 26 - - -
01/01:30pm - - - - - NW 28 43 15 23 - - -
01/01:00pm - - - - - NW 28 52 15 28 - - -
01/12:30pm - - - - - NNW 28 50 15 27 - - -
01/12:12pm - - - - - NW 28 48 15 26 - - -
01/12:00pm - - - - - NW 30 44 16 24 - - -
01/11:44am - - - - - NNW 28 54 15 29 - - -
01/11:30am - - - - - NNW 24 39 13 21 - - -
01/11:00am - - - - - NW 24 43 13 23 - - -
01/10:30am - - - - - NW 28 41 15 22 - - -
01/10:00am - - - - - NNW 28 50 15 27 - - -
01/09:33am - - - - - NNW 28 50 15 27 - - -
01/09:30am - - - - - NNW 28 43 15 23 - - -
01/09:04am - - - - - NW 28 50 15 27 - - -
01/09:00am - - - - - NNW 28 43 15 23 - - -
01/08:33am - - - - - NNW 28 46 15 25 - - -
01/08:30am - - - - - NNW 26 46 14 25 - - -
01/08:00am - - - - - NNW 26 43 14 23 - - -
01/07:30am - - - - - NW 24 52 13 28 - - -
01/07:00am - - - - - NW 26 41 14 22 - - -
01/06:30am - - - - - N 19 35 10 19 - - -
01/06:03am - - - - - NW 28 46 15 25 - - -
01/06:00am - - - - - NW 28 44 15 24 - - -
01/05:30am - - - - - NNW 22 33 12 18 - - -
01/05:00am - - - - - NNW 22 61 12 33 - - -
01/04:37am - - - - - NNW 30 54 16 29 - - -
01/04:30am - - - - - NNW 30 44 16 24 - - -
01/04:00am - - - - - NNW 28 61 15 33 - - -
01/03:30am - - - - - NNW 30 50 16 27 - - -
01/03:26am - - - - - NNW 28 48 15 26 - - -
01/03:00am - - - - - NNW 20 35 11 19 - - -
01/02:30am - - - - - NW 32 54 17 29 - - -
01/02:24am - - - - - NW 28 46 15 25 - - -
01/02:00am - - - - - NW 19 33 10 18 - - -
01/01:30am - - - - - NW 26 43 14 23 - - -
01/01:00am - - - - - NW 22 41 12 22 - - -
01/12:30am - - - - - NW 24 41 13 22 - - -
01/12:00am - - - - - NW 20 37 11 20 - - -
 
Date/Time
EST
Temp
°C
App
Temp
°C
Dew
Point
Rel
Hum
%
Delta-T
°C
Wind Press
QNH
hPa
Press
MSL
hPa
Rain
since 9 am
mm
Dir
 
Spd
km/h
Gust
km/h
Spd
kts
Gust
kts
31/11:30pm - - - - - NW 22 32 12 17 - - -
31/11:00pm - - - - - N 9 19 5 10 - - -
31/10:30pm - - - - - NNW 32 59 17 32 - - -
31/10:22pm - - - - - NW 30 57 16 31 - - -
31/10:00pm - - - - - NW 19 30 10 16 - - -
31/09:30pm - - - - - NW 22 41 12 22 - - -
31/09:00pm - - - - - NW 19 30 10 16 - - -
31/08:30pm - - - - - NW 20 39 11 21 - - -
31/08:00pm - - - - - NW 20 32 11 17 - - -
31/07:30pm - - - - - NW 15 26 8 14 - - -
31/07:00pm - - - - - NW 13 20 7 11 - - -
31/06:30pm - - - - - NW 20 30 11 16 - - -
31/06:00pm - - - - - NW 19 30 10 16 - - -
31/05:30pm - - - - - NNW 17 28 9 15 - - -
31/05:00pm - - - - - NW 17 26 9 14 - - -
31/04:30pm - - - - - NW 15 26 8 14 - - -
31/04:00pm - - - - - NW 17 28 9 15 - - -
31/03:30pm - - - - - NW 19 32 10 17 - - -
31/03:00pm - - - - - NNW 19 28 10 15 - - -
31/02:30pm - - - - - NNW 17 26 9 14 - - -
31/02:00pm - - - - - NW 20 39 11 21 - - -
31/01:30pm - - - - - NNW 19 33 10 18 - - -
31/01:00pm - - - - - NNW 19 30 10 16 - - -
31/12:30pm - - - - - NW 19 35 10 19 - - -
31/12:00pm - - - - - NW 19 32 10 17 - - -
31/11:30am - - - - - NW 19 35 10 19 - - -
31/11:00am - - - - - NW 17 28 9 15 - - -
31/10:30am - - - - - NW 20 32 11 17 - - -
31/10:00am - - - - - NNW 17 26 9 14 - - -
31/09:30am - - - - - NW 17 24 9 13 - - -
31/09:00am - - - - - NW 13 20 7 11 - - -
31/08:30am - - - - - NW 19 28 10 15 - - -
31/08:00am - - - - - NW 17 24 9 13 - - -
31/07:30am - - - - - NNW 11 20 6 11 - - -
31/07:00am - - - - - NNW 11 17 6 9 - - -
31/06:30am - - - - - NNW 13 20 7 11 - - -
31/06:00am - - - - - NNW 13 17 7 9 - - -
31/05:30am - - - - - NW 11 19 6 10 - - -
31/05:00am - - - - - NW 15 20 8 11 - - -
31/04:30am - - - - - NW 15 22 8 12 - - -
31/04:00am - - - - - NW 19 24 10 13 - - -
31/03:30am - - - - - WNW 24 30 13 16 - - -
31/03:00am - - - - - WNW 24 30 13 16 - - -
31/02:30am - - - - - WNW 26 33 14 18 - - -
31/02:00am - - - - - NW 20 28 11 15 - - -
31/01:30am - - - - - NW 20 26 11 14 - - -
31/01:00am - - - - - NW 17 24 9 13 - - -
31/12:30am - - - - - NW 19 26 10 14 - - -
31/12:00am - - - - - NW 20 30 11 16 - - -
 
Date/Time
EST
Temp
°C
App
Temp
°C
Dew
Point
Rel
Hum
%
Delta-T
°C
Wind Press
QNH
hPa
Press
MSL
hPa
Rain
since 9 am
mm
Dir
 
Spd
km/h
Gust
km/h
Spd
kts
Gust
kts
30/11:30pm - - - - - NW 20 26 11 14 - - -
30/11:00pm - - - - - NW 19 26 10 14 - - -
30/10:30pm - - - - - NW 17 24 9 13 - - -
30/10:00pm - - - - - NW 13 20 7 11 - - -
30/09:30pm - - - - - NW 15 24 8 13 - - -
30/09:00pm - - - - - NW 17 22 9 12 - - -
30/08:30pm - - - - - NW 15 20 8 11 - - -
30/08:00pm - - - - - NW 17 22 9 12 - - -
30/07:30pm - - - - - NW 17 22 9 12 - - -
30/07:00pm - - - - - NW 17 26 9 14 - - -
30/06:30pm - - - - - NW 15 19 8 10 - - -
30/06:00pm - - - - - NW 15 24 8 13 - - -
30/05:30pm - - - - - NW 9 13 5 7 - - -
30/05:00pm - - - - - NW 11 17 6 9 - - -
30/04:30pm - - - - - WNW 17 20 9 11 - - -
30/04:00pm - - - - - WNW 19 22 10 12 - - -
30/03:30pm - - - - - WNW 19 24 10 13 - - -
30/03:00pm - - - - - WNW 20 26 11 14 - - -
30/02:30pm - - - - - WNW 20 22 11 12 - - -
30/02:00pm - - - - - W 24 30 13 16 - - -
30/01:30pm - - - - - W 24 28 13 15 - - -
30/01:00pm - - - - - W 24 30 13 16 - - -
30/12:30pm - - - - - W 26 28 14 15 - - -
30/12:00pm - - - - - W 26 30 14 16 - - -
30/11:30am - - - - - WNW 22 26 12 14 - - -
30/11:00am - - - - - W 22 28 12 15 - - -
30/10:30am - - - - - W 22 28 12 15 - - -
30/10:00am - - - - - W 24 28 13 15 - - -
30/09:30am - - - - - W 24 28 13 15 - - -
30/09:00am - - - - - WNW 24 30 13 16 - - -
30/08:30am - - - - - W 24 28 13 15 - - -
30/08:00am - - - - - WNW 26 32 14 17 - - -
30/07:30am - - - - - WNW 24 30 13 16 - - -
30/07:00am - - - - - WNW 22 28 12 15 - - -
30/06:30am - - - - - WNW 24 32 13 17 - - -
30/06:00am - - - - - W 28 35 15 19 - - -
30/05:30am - - - - - W 28 32 15 17 - - -
30/05:00am - - - - - W 28 30 15 16 - - -
30/04:30am - - - - - W 28 35 15 19 - - -
30/04:00am - - - - - W 28 32 15 17 - - -
30/03:30am - - - - - WNW 24 32 13 17 - - -
30/03:00am - - - - - W 24 28 13 15 - - -
30/02:30am - - - - - W 22 26 12 14 - - -
30/02:00am - - - - - W 26 28 14 15 - - -
30/01:30am - - - - - WNW 28 30 15 16 - - -
30/01:00am - - - - - NNW 22 30 12 16 - - -
30/12:30am - - - - - NW 20 30 11 16 - - -
30/12:00am - - - - - NW 22 33 12 18 - - -

Other Formats:

Comma delimited format used in spreadsheet applications
http://www.bom.gov.au/fwo/IDN60801/IDN60801.95995.axf

JavaScript Object Notation format (JSON) in row-major order
http://www.bom.gov.au/fwo/IDN60801/IDN60801.95995.json